sensor_id;sensor_type;location;lat;lon;timestamp;pressure;altitude;pressure_sealevel;temperature;humidity
70488;BME280;57976;48.174;16.370;2023-05-16T00:01:49;98834.88;;;14.21;81.05
70488;BME280;57976;48.174;16.370;2023-05-16T00:03:54;98828.76;;;14.21;81.04
70488;BME280;57976;48.174;16.370;2023-05-16T00:05:59;98827.89;;;14.19;80.97
70488;BME280;57976;48.174;16.370;2023-05-16T00:08:04;98825.13;;;14.19;81.12
70488;BME280;57976;48.174;16.370;2023-05-16T00:10:09;98819.27;;;14.17;81.12
70488;BME280;57976;48.174;16.370;2023-05-16T00:12:14;98815.40;;;14.17;81.11
70488;BME280;57976;48.174;16.370;2023-05-16T00:14:19;98811.14;;;14.16;81.05
70488;BME280;57976;48.174;16.370;2023-05-16T00:16:24;98819.30;;;14.14;81.10
70488;BME280;57976;48.174;16.370;2023-05-16T00:18:28;98816.17;;;14.13;81.27
70488;BME280;57976;48.174;16.370;2023-05-16T00:20:33;98819.04;;;14.12;81.14
70488;BME280;57976;48.174;16.370;2023-05-16T00:22:38;98822.61;;;14.12;81.15
70488;BME280;57976;48.174;16.370;2023-05-16T00:24:43;98822.61;;;14.12;81.21
70488;BME280;57976;48.174;16.370;2023-05-16T00:26:48;98817.42;;;14.12;81.31
70488;BME280;57976;48.174;16.370;2023-05-16T00:28:53;98813.17;;;14.12;81.31
70488;BME280;57976;48.174;16.370;2023-05-16T00:30:57;98816.50;;;14.11;81.22
70488;BME280;57976;48.174;16.370;2023-05-16T00:33:02;98815.50;;;14.09;81.13
70488;BME280;57976;48.174;16.370;2023-05-16T00:35:10;98820.57;;;14.08;81.07
70488;BME280;57976;48.174;16.370;2023-05-16T00:37:14;98819.98;;;14.05;81.35
70488;BME280;57976;48.174;16.370;2023-05-16T00:39:19;98817.05;;;14.04;81.26
70488;BME280;57976;48.174;16.370;2023-05-16T00:41:24;98813.96;;;14.02;81.28
70488;BME280;57976;48.174;16.370;2023-05-16T00:43:28;98813.09;;;14.01;81.47
70488;BME280;57976;48.174;16.370;2023-05-16T00:45:33;98807.27;;;14.02;81.25
70488;BME280;57976;48.174;16.370;2023-05-16T00:47:38;98804.41;;;14.01;81.65
70488;BME280;57976;48.174;16.370;2023-05-16T00:49:43;98805.07;;;14.02;81.54
70488;BME280;57976;48.174;16.370;2023-05-16T00:51:47;98803.35;;;14.00;81.38
70488;BME280;57976;48.174;16.370;2023-05-16T00:53:55;98807.16;;;13.97;81.56
70488;BME280;57976;48.174;16.370;2023-05-16T00:56:00;98810.67;;;13.99;81.50
70488;BME280;57976;48.174;16.370;2023-05-16T00:58:07;98814.47;;;13.98;81.24
70488;BME280;57976;48.174;16.370;2023-05-16T01:00:13;98811.95;;;13.98;81.27
70488;BME280;57976;48.174;16.370;2023-05-16T01:02:17;98816.70;;;14.00;81.18
70488;BME280;57976;48.174;16.370;2023-05-16T01:05:48;98808.05;;;14.04;81.27
70488;BME280;57976;48.174;16.370;2023-05-16T01:07:53;98793.83;;;14.03;81.10
70488;BME280;57976;48.174;16.370;2023-05-16T01:09:58;98799.35;;;14.03;81.15
70488;BME280;57976;48.174;16.370;2023-05-16T01:12:10;98797.05;;;14.02;80.88
70488;BME280;57976;48.174;16.370;2023-05-16T01:14:24;98798.12;;;14.00;81.00
70488;BME280;57976;48.174;16.370;2023-05-16T01:16:38;98801.13;;;13.98;80.94
70488;BME280;57976;48.174;16.370;2023-05-16T01:18:50;98805.19;;;13.95;81.22
70488;BME280;57976;48.174;16.370;2023-05-16T01:20:59;98803.70;;;13.93;81.15
70488;BME280;57976;48.174;16.370;2023-05-16T01:23:22;98802.71;;;13.93;81.18
70488;BME280;57976;48.174;16.370;2023-05-16T01:25:43;98799.74;;;13.91;81.31
70488;BME280;57976;48.174;16.370;2023-05-16T01:27:50;98802.02;;;13.90;81.34
70488;BME280;57976;48.174;16.370;2023-05-16T01:29:57;98796.69;;;13.89;81.51
70488;BME280;57976;48.174;16.370;2023-05-16T01:32:02;98795.23;;;13.89;81.27
70488;BME280;57976;48.174;16.370;2023-05-16T01:34:08;98800.08;;;13.86;81.55
70488;BME280;57976;48.174;16.370;2023-05-16T01:36:18;98801.63;;;13.84;81.41
70488;BME280;57976;48.174;16.370;2023-05-16T01:38:29;98803.98;;;13.82;81.32
70488;BME280;57976;48.174;16.370;2023-05-16T01:40:44;98802.88;;;13.80;81.63
70488;BME280;57976;48.174;16.370;2023-05-16T01:42:53;98800.83;;;13.79;81.75
70488;BME280;57976;48.174;16.370;2023-05-16T01:45:19;98795.98;;;13.81;81.70
70488;BME280;57976;48.174;16.370;2023-05-16T01:47:29;98793.53;;;13.79;81.95
70488;BME280;57976;48.174;16.370;2023-05-16T01:49:38;98790.04;;;13.79;81.92
70488;BME280;57976;48.174;16.370;2023-05-16T01:51:47;98784.03;;;13.78;81.78
70488;BME280;57976;48.174;16.370;2023-05-16T01:53:57;98784.98;;;13.78;81.96
70488;BME280;57976;48.174;16.370;2023-05-16T01:56:07;98778.09;;;13.78;81.88
70488;BME280;57976;48.174;16.370;2023-05-16T01:58:14;98772.13;;;13.77;81.99
70488;BME280;57976;48.174;16.370;2023-05-16T02:00:20;98769.48;;;13.75;82.03
70488;BME280;57976;48.174;16.370;2023-05-16T02:02:25;98769.63;;;13.76;82.19
70488;BME280;57976;48.174;16.370;2023-05-16T02:04:30;98771.92;;;13.76;82.22
70488;BME280;57976;48.174;16.370;2023-05-16T02:06:35;98774.98;;;13.76;82.11
70488;BME280;57976;48.174;16.370;2023-05-16T02:08:41;98781.20;;;13.76;82.15
70488;BME280;57976;48.174;16.370;2023-05-16T02:10:46;98788.64;;;13.75;82.29
70488;BME280;57976;48.174;16.370;2023-05-16T02:12:52;98795.20;;;13.75;82.31
70488;BME280;57976;48.174;16.370;2023-05-16T02:14:57;98795.57;;;13.74;82.31
70488;BME280;57976;48.174;16.370;2023-05-16T02:17:03;98794.14;;;13.75;82.24
70488;BME280;57976;48.174;16.370;2023-05-16T02:19:08;98790.46;;;13.76;82.20
70488;BME280;57976;48.174;16.370;2023-05-16T02:21:15;98788.42;;;13.75;82.37
70488;BME280;57976;48.174;16.370;2023-05-16T02:23:20;98791.00;;;13.76;82.12
70488;BME280;57976;48.174;16.370;2023-05-16T02:25:26;98790.70;;;13.77;82.20
70488;BME280;57976;48.174;16.370;2023-05-16T02:27:31;98787.39;;;13.77;82.19
70488;BME280;57976;48.174;16.370;2023-05-16T02:29:36;98784.87;;;13.77;82.08
70488;BME280;57976;48.174;16.370;2023-05-16T02:31:41;98784.83;;;13.78;82.13
70488;BME280;57976;48.174;16.370;2023-05-16T02:33:46;98782.09;;;13.79;82.13
70488;BME280;57976;48.174;16.370;2023-05-16T02:35:51;98774.96;;;13.79;82.18
70488;BME280;57976;48.174;16.370;2023-05-16T02:37:57;98779.98;;;13.79;81.93
70488;BME280;57976;48.174;16.370;2023-05-16T02:40:02;98782.50;;;13.79;82.04
70488;BME280;57976;48.174;16.370;2023-05-16T02:42:07;98780.68;;;13.79;82.06
